Time;durP1;ratioP1;P1;durP2;ratioP2;P2;SDS_P1;SDS_P2;PMS_P1;PMS_P2;Temp;Humidity;BMP_temperature;BMP_pressure;BME280_temperature;BME280_humidity;BME280_pressure;Samples;Min_cycle;Max_cycle;Signal;HPM_P1;HPM_P2
2021/08/21 00:00:17;;;;;;;6.23;4.47;;;;;;;;;;5110371;28;20447;-71
2021/08/21 00:02:44;;;;;;;9.23;4.93;;;;;;;;;;5110947;28;20447;-70
2021/08/21 00:05:12;;;;;;;5.60;5.03;;;;;;;;;;5111167;28;20450;-71
2021/08/21 00:07:39;;;;;;;4.20;3.70;;;;;;;;;;5110569;28;20887;-71
2021/08/21 00:10:09;;;;;;;5.90;4.60;;;;;;;;;;5110382;28;20519;-71
2021/08/21 00:12:36;;;;;;;5.53;4.23;;;;;;;;;;5110917;28;20471;-71
2021/08/21 00:15:04;;;;;;;19.03;5.00;;;;;;;;;;5110904;28;20443;-71
2021/08/21 00:17:31;;;;;;;4.70;4.30;;;;;;;;;;5110506;28;20435;-71
2021/08/21 00:19:58;;;;;;;5.00;4.20;;;;;;;;;;5110731;28;20536;-71
2021/08/21 00:22:26;;;;;;;13.73;4.60;;;;;;;;;;5109606;28;20851;-71
2021/08/21 00:24:53;;;;;;;4.47;4.07;;;;;;;;;;5111319;28;20435;-71
2021/08/21 00:27:23;;;;;;;6.03;4.13;;;;;;;;;;5113590;28;20471;-71
2021/08/21 00:29:50;;;;;;;7.40;4.10;;;;;;;;;;5114734;28;20797;-71
2021/08/21 00:32:17;;;;;;;6.20;4.07;;;;;;;;;;5114737;28;20812;-71
2021/08/21 00:34:44;;;;;;;6.37;4.40;;;;;;;;;;5115001;28;20486;-71
2021/08/21 00:37:12;;;;;;;4.97;4.20;;;;;;;;;;5114732;28;20531;-71
2021/08/21 00:39:39;;;;;;;4.90;3.90;;;;;;;;;;5114260;28;21010;-71
2021/08/21 00:42:06;;;;;;;5.30;4.50;;;;;;;;;;5114765;28;20483;-71
2021/08/21 00:44:36;;;;;;;4.27;3.87;;;;;;;;;;5114395;28;20530;-71
2021/08/21 00:47:10;;;;;;;5.00;4.03;;;;;;;;;;5114783;28;20538;-71
2021/08/21 00:49:38;;;;;;;5.37;4.67;;;;;;;;;;5107662;28;20455;-71
2021/08/21 00:52:06;;;;;;;5.67;4.53;;;;;;;;;;5114376;28;20451;-71
2021/08/21 00:54:33;;;;;;;7.10;3.90;;;;;;;;;;5113716;28;20874;-70
2021/08/21 00:57:02;;;;;;;4.57;4.17;;;;;;;;;;5114537;28;20446;-72
2021/08/21 00:59:30;;;;;;;4.70;3.90;;;;;;;;;;5114117;28;20931;-71
2021/08/21 01:01:58;;;;;;;6.53;4.87;;;;;;;;;;5116734;28;20562;-73
2021/08/21 01:04:25;;;;;;;4.10;3.70;;;;;;;;;;5114316;28;20446;-72
2021/08/21 01:06:53;;;;;;;6.20;4.90;;;;;;;;;;5114252;28;20526;-72
2021/08/21 01:09:20;;;;;;;8.83;4.93;;;;;;;;;;5113509;28;20821;-72
2021/08/21 01:11:47;;;;;;;4.70;4.20;;;;;;;;;;5114219;28;20533;-72
2021/08/21 01:14:14;;;;;;;5.97;4.43;;;;;;;;;;5113599;28;20462;-72
2021/08/21 01:16:42;;;;;;;4.63;4.10;;;;;;;;;;5113693;28;20526;-72
2021/08/21 01:19:10;;;;;;;6.67;4.50;;;;;;;;;;5114256;28;20551;-72
2021/08/21 01:21:38;;;;;;;5.50;4.80;;;;;;;;;;5112872;28;20528;-72
2021/08/21 01:24:05;;;;;;;7.33;4.57;;;;;;;;;;5113322;28;20454;-72
2021/08/21 01:26:32;;;;;;;10.00;4.70;;;;;;;;;;5113299;28;20440;-72
2021/08/21 01:29:01;;;;;;;5.20;4.70;;;;;;;;;;5114035;28;20535;-72
2021/08/21 01:31:28;;;;;;;6.27;4.60;;;;;;;;;;5113433;28;20443;-72
2021/08/21 01:33:55;;;;;;;3.80;3.50;;;;;;;;;;5113605;28;20453;-72
2021/08/21 01:36:23;;;;;;;5.23;4.20;;;;;;;;;;5112749;28;20531;-71
2021/08/21 01:38:57;;;;;;;5.13;4.23;;;;;;;;;;5113818;28;20527;-72
2021/08/21 01:41:24;;;;;;;6.00;4.60;;;;;;;;;;5113470;28;20483;-72
2021/08/21 01:43:51;;;;;;;5.10;4.43;;;;;;;;;;5113026;28;20454;-71
2021/08/21 01:46:20;;;;;;;7.07;4.83;;;;;;;;;;5113302;28;20435;-72
2021/08/21 01:48:47;;;;;;;5.67;5.17;;;;;;;;;;5115027;28;20534;-72
2021/08/21 01:51:14;;;;;;;5.07;4.57;;;;;;;;;;5114114;28;20459;-72
2021/08/21 01:53:41;;;;;;;4.90;4.40;;;;;;;;;;5113690;28;20539;-71
2021/08/21 01:56:09;;;;;;;4.87;4.47;;;;;;;;;;5113256;28;20531;-71
2021/08/21 01:58:36;;;;;;;5.27;4.77;;;;;;;;;;5112772;28;20530;-71
2021/08/21 02:01:04;;;;;;;6.40;4.70;;;;;;;;;;5113410;28;20569;-71
2021/08/21 02:03:33;;;;;;;7.70;5.00;;;;;;;;;;5112970;28;20454;-71
2021/08/21 02:06:00;;;;;;;7.27;5.27;;;;;;;;;;5112387;28;20505;-72
2021/08/21 02:08:27;;;;;;;6.00;4.80;;;;;;;;;;5112748;28;20446;-71
2021/08/21 02:10:54;;;;;;;5.23;4.73;;;;;;;;;;5112704;28;20443;-71
2021/08/21 02:13:21;;;;;;;4.73;4.33;;;;;;;;;;5112870;28;20521;-71
2021/08/21 02:15:48;;;;;;;5.37;4.67;;;;;;;;;;5112427;28;20543;-71
2021/08/21 02:18:16;;;;;;;5.00;4.50;;;;;;;;;;5112503;28;20492;-71
2021/08/21 02:20:46;;;;;;;4.87;4.47;;;;;;;;;;5112851;28;20581;-71
2021/08/21 02:23:13;;;;;;;5.80;4.40;;;;;;;;;;5112398;28;20536;-72
2021/08/21 02:25:40;;;;;;;6.93;4.80;;;;;;;;;;5112850;28;20450;-72
2021/08/21 02:28:09;;;;;;;5.17;4.67;;;;;;;;;;5112946;28;20443;-71
2021/08/21 02:30:37;;;;;;;5.70;5.10;;;;;;;;;;5111875;28;20497;-71
2021/08/21 02:33:04;;;;;;;5.60;4.87;;;;;;;;;;5112255;28;20462;-72
2021/08/21 02:35:31;;;;;;;5.00;4.50;;;;;;;;;;5111960;28;20897;-71
2021/08/21 02:38:00;;;;;;;8.10;6.17;;;;;;;;;;5112618;28;20970;-71
2021/08/21 02:40:28;;;;;;;6.00;5.40;;;;;;;;;;5112062;28;20497;-72
2021/08/21 02:42:56;;;;;;;7.27;5.13;;;;;;;;;;5112082;28;20562;-71
2021/08/21 02:45:23;;;;;;;7.90;5.20;;;;;;;;;;5111646;28;20454;-72
2021/08/21 02:47:50;;;;;;;6.83;5.80;;;;;;;;;;5111712;28;20447;-72
2021/08/21 02:50:17;;;;;;;5.80;4.73;;;;;;;;;;5111462;28;20991;-71
2021/08/21 02:52:44;;;;;;;6.17;5.53;;;;;;;;;;5111814;28;20467;-71
2021/08/21 02:55:13;;;;;;;6.63;5.57;;;;;;;;;;5112088;28;20970;-72
2021/08/21 02:57:40;;;;;;;5.63;4.90;;;;;;;;;;5112089;28;20455;-71
2021/08/21 03:00:08;;;;;;;5.70;4.97;;;;;;;;;;5111872;28;20446;-71
2021/08/21 03:02:35;;;;;;;5.40;4.87;;;;;;;;;;5111179;28;20562;-72
2021/08/21 03:05:02;;;;;;;6.23;5.63;;;;;;;;;;5112484;28;20530;-71
2021/08/21 03:07:30;;;;;;;9.17;5.23;;;;;;;;;;5111217;28;20450;-71
2021/08/21 03:09:57;;;;;;;5.13;4.63;;;;;;;;;;5111729;28;20440;-71
2021/08/21 03:12:29;;;;;;;8.37;6.30;;;;;;;;;;5111713;28;20447;-72
2021/08/21 03:14:56;;;;;;;6.10;5.50;;;;;;;;;;5111273;28;20530;-72
2021/08/21 03:17:23;;;;;;;6.50;5.90;;;;;;;;;;5111418;28;20447;-72
2021/08/21 03:19:50;;;;;;;6.20;5.60;;;;;;;;;;5111313;28;20955;-71
2021/08/21 03:22:17;;;;;;;5.70;5.07;;;;;;;;;;5111079;28;20489;-72
2021/08/21 03:24:44;;;;;;;5.17;4.67;;;;;;;;;;5111636;28;20443;-72
2021/08/21 03:27:12;;;;;;;6.00;4.60;;;;;;;;;;5112062;28;20958;-72
2021/08/21 03:29:40;;;;;;;5.83;5.23;;;;;;;;;;5111334;28;20538;-72
2021/08/21 03:32:10;;;;;;;7.00;6.23;;;;;;;;;;5111394;28;20530;-71
2021/08/21 03:34:37;;;;;;;5.93;5.33;;;;;;;;;;5110334;28;20540;-72
2021/08/21 03:37:04;;;;;;;5.43;4.93;;;;;;;;;;5111398;28;20531;-71
2021/08/21 03:39:31;;;;;;;5.97;5.37;;;;;;;;;;5110706;28;20483;-72
2021/08/21 03:41:59;;;;;;;7.07;5.70;;;;;;;;;;5111199;28;20860;-71
2021/08/21 03:44:26;;;;;;;6.17;5.57;;;;;;;;;;5110887;28;20538;-72
2021/08/21 03:46:54;;;;;;;6.93;5.80;;;;;;;;;;5110857;28;20526;-72
2021/08/21 03:49:21;;;;;;;6.07;5.00;;;;;;;;;;5110745;28;20884;-72
2021/08/21 03:51:49;;;;;;;6.03;4.90;;;;;;;;;;5110972;28;20448;-72
2021/08/21 03:54:16;;;;;;;8.20;5.83;;;;;;;;;;5110209;28;20435;-72
2021/08/21 03:56:43;;;;;;;6.00;5.23;;;;;;;;;;5111066;28;20447;-71
2021/08/21 03:59:10;;;;;;;6.10;5.07;;;;;;;;;;5110673;28;20450;-72
2021/08/21 04:01:38;;;;;;;6.83;5.73;;;;;;;;;;5111106;28;20447;-72
2021/08/21 04:04:06;;;;;;;5.67;5.10;;;;;;;;;;5110736;28;20439;-71
2021/08/21 04:06:33;;;;;;;8.23;4.93;;;;;;;;;;5110204;28;20450;-71
2021/08/21 04:09:01;;;;;;;5.47;4.97;;;;;;;;;;5110850;28;20450;-72
2021/08/21 04:11:28;;;;;;;6.00;4.90;;;;;;;;;;5110512;28;20518;-71
2021/08/21 04:13:55;;;;;;;5.30;4.47;;;;;;;;;;5110722;28;20523;-72
2021/08/21 04:16:22;;;;;;;6.27;5.60;;;;;;;;;;5110341;28;20519;-71
2021/08/21 04:18:49;;;;;;;5.83;5.23;;;;;;;;;;5111187;28;20571;-71
2021/08/21 04:21:18;;;;;;;5.90;5.17;;;;;;;;;;5109745;28;20472;-72
2021/08/21 04:23:45;;;;;;;5.40;4.90;;;29.10;11.80;;;;;;5110779;28;20489;-71
2021/08/21 04:26:12;;;;;;;6.97;5.70;;;;;;;;;;5110574;28;21111;-71
2021/08/21 04:28:39;;;;;;;6.17;4.83;;;;;;;;;;5090655;28;20481;-71
2021/08/21 04:31:07;;;;;;;6.23;5.63;;;;;;;;;;5106539;28;20477;-71
2021/08/21 04:33:34;;;;;;;5.07;4.57;;;;;;;;;;5109986;28;20445;-72
2021/08/21 04:36:01;;;;;;;10.00;4.93;;;;;;;;;;5110377;28;20447;-71
2021/08/21 04:38:29;;;;;;;5.33;4.80;;;;;;;;;;5090275;28;20453;-72
2021/08/21 04:40:56;;;;;;;5.87;5.37;;;;;;;;;;5093142;28;20530;-71
2021/08/21 04:43:24;;;;;;;7.00;5.07;;;;;;;;;;5110304;28;20476;-71
2021/08/21 04:45:51;;;;;;;6.10;5.50;;;;;;;;;;5110730;28;20759;-72
2021/08/21 04:48:18;;;;;;;5.30;4.80;;;;;;;;;;5110270;28;20939;-72
2021/08/21 04:50:45;;;;;;;5.63;5.03;;;;;;;;;;5110132;28;20436;-71
2021/08/21 04:53:12;;;;;;;6.20;5.60;;;;;;;;;;5110177;28;20567;-71
2021/08/21 04:55:41;;;;;;;7.10;6.43;;;;;;;;;;5109491;28;20500;-71
2021/08/21 04:58:08;;;;;;;5.90;5.17;;;;;;;;;;5110229;28;21027;-71
2021/08/21 05:00:35;;;;;;;5.87;5.20;;;;;;;;;;5109275;28;20439;-71
2021/08/21 05:03:02;;;;;;;5.97;5.47;;;;;;;;;;5109998;28;20467;-71
2021/08/21 05:05:30;;;;;;;6.00;5.37;;;;;;;;;;5110297;28;20439;-71
2021/08/21 05:07:57;;;;;;;5.97;5.37;;;;;;;;;;5110336;28;20455;-71
2021/08/21 05:10:24;;;;;;;5.87;5.13;;;;;;;;;;5110234;28;20458;-72
2021/08/21 05:12:53;;;;;;;7.80;5.87;;;;;;;;;;5113712;28;20522;-71
2021/08/21 05:15:20;;;;;;;8.60;5.40;;;;;;;;;;5113951;28;20461;-71
2021/08/21 05:17:49;;;;;;;6.97;4.97;;;;;;;;;;5114162;28;20819;-71
2021/08/21 05:20:17;;;;;;;4.40;4.00;;;;;;;;;;5112846;28;21138;-74
2021/08/21 05:23:02;;;;;;;6.00;5.10;;;;;;;;;;5113268;28;20556;-74
2021/08/21 05:25:29;;;;;;;6.10;5.37;;;;;;;;;;5113207;27;20443;-73
2021/08/21 05:27:58;;;;;;;6.50;5.90;;;;;;;;;;5113934;28;20486;-73
2021/08/21 05:30:27;;;;;;;6.10;5.40;;;;;;;;;;5113799;28;20440;-73
2021/08/21 05:32:55;;;;;;;6.50;4.10;;;;;;;;;;5112956;28;20463;-73
2021/08/21 05:35:22;;;;;;;5.90;5.30;;;;;;;;;;5113052;28;20444;-73
2021/08/21 05:37:49;;;;;;;5.97;5.07;;;;;;;;;;5113626;28;20532;-73
2021/08/21 05:40:16;;;;;;;5.50;5.00;;;;;;;;;;5112825;28;20530;-73
2021/08/21 05:42:44;;;;;;;5.67;5.07;;;;;;;;;;5113309;28;20507;-74
2021/08/21 05:45:12;;;;;;;5.17;4.67;;;;;;;;;;5114059;28;20440;-74
2021/08/21 05:47:40;;;;;;;7.60;5.23;;;;;;;;;;5113048;28;20443;-73
2021/08/21 05:50:07;;;;;;;5.10;4.57;;;;;;;;;;5116230;28;20550;-75
2021/08/21 05:52:34;;;;;;;7.97;7.20;;;;;;;;;;5115507;28;20944;-73
2021/08/21 05:55:01;;;;;;;8.30;5.70;;;;;;;;;;5115320;28;20440;-73
2021/08/21 05:57:29;;;;;;;5.73;5.13;;;;;;;;;;5112847;28;20454;-75
2021/08/21 05:59:56;;;;;;;5.80;5.20;;;;;;;;;;5112741;28;20523;-72
2021/08/21 06:02:25;;;;;;;4.97;4.47;;;;;;;;;;5111937;28;20476;-73
2021/08/21 06:04:52;;;;;;;5.20;4.70;;;;;;;;;;5112516;28;20587;-74
2021/08/21 06:07:20;;;;;;;5.10;4.60;;;;;;;;;;5112600;28;20928;-74
2021/08/21 06:09:47;;;;;;;11.60;5.97;;;;;;;;;;5112468;28;21023;-74
2021/08/21 06:12:14;;;;;;;5.80;4.80;;;;;;;;;;5112659;28;20439;-73
2021/08/21 06:14:41;;;;;;;6.17;5.23;;;;;;;;;;5112609;28;20451;-73
2021/08/21 06:17:09;;;;;;;5.07;4.20;;;;;;;;;;5092601;28;20457;-73
2021/08/21 06:19:37;;;;;;;5.03;4.50;;;;;;;;;;5092120;28;20445;-72
2021/08/21 06:22:05;;;;;;;5.30;4.77;;;;;;;;;;5103896;28;20471;-73
2021/08/21 06:24:33;;;;;;;6.50;4.63;;;;;;;;;;5112212;28;20833;-72
2021/08/21 06:27:00;;;;;;;6.63;4.80;;;;;;;;;;5112548;28;20524;-73
2021/08/21 06:29:29;;;;;;;5.63;5.10;;;;;;;;;;5112478;28;20890;-72
2021/08/21 06:31:56;;;;;;;6.90;4.80;;;;;;;;;;5111815;28;20971;-72
2021/08/21 06:34:23;;;;;;;4.57;4.17;;;;;;;;;;5111542;28;20543;-73
2021/08/21 06:36:51;;;;;;;5.30;4.63;;;;;;;;;;5112414;28;20442;-72
2021/08/21 06:39:18;;;;;;;5.70;4.83;;;;;;;;;;5111080;28;20440;-72
2021/08/21 06:41:46;;;;;;;4.53;4.10;;;;;;;;;;5112115;28;20443;-73
2021/08/21 06:44:13;;;;;;;6.00;4.70;;;;;;;;;;5112032;28;20921;-72
2021/08/21 06:46:40;;;;;;;5.83;5.23;;;;;;;;;;5111833;28;20535;-73
2021/08/21 06:49:07;;;;;;;6.30;5.40;;;;;;;;;;5111931;28;20456;-74
2021/08/21 06:51:34;;;;;;;6.13;4.67;;;;;;;;;;5111659;28;20534;-73
2021/08/21 06:54:03;;;;;;;5.90;4.73;;;;;;;;;;5111388;28;20450;-73
2021/08/21 06:56:31;;;;;;;5.77;5.17;;;;;;;;;;5103449;28;20530;-73
2021/08/21 06:58:58;;;;;;;8.27;4.93;;;;;;;;;;5111458;28;20440;-73
2021/08/21 07:01:27;;;;;;;7.07;4.97;;;;;;;;;;5111406;28;20452;-73
2021/08/21 07:03:54;;;;;;;5.67;5.10;;;;;;;;;;5111507;28;20475;-74
2021/08/21 07:06:21;;;;;;;6.60;5.67;;;;;;;;;;5111321;28;20497;-73
2021/08/21 07:08:48;;;;;;;8.20;6.43;;;;;;;;;;5111230;28;20436;-73
2021/08/21 07:11:17;;;;;;;6.53;5.83;;;;;;;;;;5111492;28;20474;-72
2021/08/21 07:13:45;;;;;;;9.10;6.80;;;;;;;;;;5112040;28;20471;-74
2021/08/21 07:16:12;;;;;;;8.27;7.47;;;;;;;;;;5110741;28;20452;-72
2021/08/21 07:18:40;;;;;;;7.43;6.50;;;;;;;;;;5110869;28;20462;-73
2021/08/21 07:21:09;;;;;;;7.00;5.40;;;;;;;;;;5111576;28;20490;-73
2021/08/21 07:23:36;;;;;;;6.27;5.67;;;;;;;;;;5110037;28;20919;-73
2021/08/21 07:26:04;;;;;;;6.70;5.80;;;;;;;;;;5111249;28;20543;-74
2021/08/21 07:28:32;;;;;;;7.23;6.50;;;;;;;;;;5111154;28;20515;-74
2021/08/21 07:31:00;;;;;;;7.30;5.63;;;;;;;;;;5111367;28;20870;-74
2021/08/21 07:33:27;;;;;;;6.53;5.93;;;;;;;;;;5110516;28;20505;-73
2021/08/21 07:35:55;;;;;;;6.70;5.57;;;;;;;;;;5110536;28;20978;-73
2021/08/21 07:38:22;;;;;;;6.33;5.70;;;;;;;;;;5110980;28;20450;-74
2021/08/21 07:40:49;;;;;;;5.97;5.47;;;;;;;;;;5111633;28;20932;-74
2021/08/21 07:43:16;;;;;;;6.13;5.53;;;;;;;;;;5110530;28;20555;-74
2021/08/21 07:45:46;;;;;;;7.47;5.23;;;;;;;;;;5111582;28;20744;-74
2021/08/21 07:48:14;;;;;;;5.33;4.80;;;;;;;;;;5110500;28;20440;-74
2021/08/21 07:50:41;;;;;;;7.03;5.23;;;;;;;;;;5110893;28;20463;-73
2021/08/21 07:53:08;;;;;;;8.67;6.73;;;;;;;;;;5111539;28;20822;-74
2021/08/21 07:55:36;;;;;;;5.50;5.00;;;;;;;;;;5110707;28;20527;-73
2021/08/21 07:58:03;;;;;;;6.73;5.03;;;;;;;;;;5111026;28;20497;-74
2021/08/21 08:00:31;;;;;;;6.90;5.47;;;;;;;;;;5110660;28;20471;-74
2021/08/21 08:02:59;;;;;;;5.23;4.40;;;;;;;;;;5110019;28;20493;-74
2021/08/21 08:05:27;;;;;;;7.43;5.00;;;;;;;;;;5110652;28;20450;-73
2021/08/21 08:07:54;;;;;;;5.17;4.67;;;;;;;;;;5110819;28;20440;-73
2021/08/21 08:10:21;;;;;;;5.47;4.87;;;;;;;;;;5110297;28;20797;-73
2021/08/21 08:12:48;;;;;;;7.00;4.50;;;;;;;;;;5110801;28;20443;-74
2021/08/21 08:15:16;;;;;;;5.07;4.57;;;;;;;;;;5110730;28;20875;-74
2021/08/21 08:17:43;;;;;;;5.33;4.60;;;;;;;;;;5110077;28;20454;-73
2021/08/21 08:20:13;;;;;;;8.87;4.40;;;;;;;;;;5110448;28;21028;-73
2021/08/21 08:22:40;;;;;;;5.00;4.50;;;;;;;;;;5110505;28;20443;-75
2021/08/21 08:25:08;;;;;;;6.63;4.50;;;;;;;;;;5095484;28;20497;-73
2021/08/21 08:27:35;;;;;;;5.93;4.60;;;;;;;;;;5110286;28;20444;-73
2021/08/21 08:30:02;;;;;;;5.17;4.10;;;;;;;;;;5109981;28;20444;-73
2021/08/21 08:32:29;;;;;;;5.53;4.73;;;;;;;;;;5110486;28;20531;-74
2021/08/21 08:34:56;;;;;;;6.60;5.50;;;;;;;;;;5109666;28;20475;-73
2021/08/21 08:37:25;;;;;;;5.53;4.33;;;;;;;;;;5110761;28;20447;-73
2021/08/21 08:39:52;;;;;;;5.37;4.83;;;;;;;;;;5110303;28;20937;-74
2021/08/21 08:42:20;;;;;;;5.30;4.57;;;;;;;;;;5108936;28;20467;-73
2021/08/21 08:44:48;;;;;;;5.73;4.80;;;;;;;;;;5108065;28;20475;-76
2021/08/21 08:47:15;;;;;;;5.93;4.83;;;;;;;;;;5112778;28;20534;-73
2021/08/21 08:49:45;;;;;;;5.60;5.10;;;;;;;;;;5113213;28;20451;-75
2021/08/21 08:52:13;;;;;;;4.90;4.40;;;;;;;;;;5113892;28;21040;-73
2021/08/21 08:54:41;;;;;;;6.77;5.70;;;;;;;;;;5110200;28;20446;-79
2021/08/21 08:57:08;;;;;;;10.43;4.97;;;;;;;;;;5114569;28;20451;-74
2021/08/21 08:59:36;;;;;;;8.47;5.43;;;;;;;;;;5113221;28;20515;-74
2021/08/21 09:02:03;;;;;;;6.27;5.23;;;;;;;;;;5113936;28;20899;-76
2021/08/21 09:04:30;;;;;;;6.87;5.67;;;;;;;;;;5113137;28;20475;-78
2021/08/21 09:06:57;;;;;;;6.70;4.90;;;;;;;;;;5114298;28;20945;-77
2021/08/21 09:09:26;;;;;;;5.20;4.70;;;;;;;;;;5114281;28;20445;-79
2021/08/21 09:11:56;;;;;;;5.27;4.47;;;;;;;;;;5114091;28;20439;-77
2021/08/21 09:14:26;;;;;;;6.60;4.80;;;;;;;;;;5113825;28;20967;-78
2021/08/21 09:16:54;;;;;;;6.00;5.43;;;;;;;;;;5114640;28;20439;-78
2021/08/21 09:19:25;;;;;;;6.97;5.13;;;;;;;;;;5113730;28;20923;-78
2021/08/21 09:21:59;;;;;;;6.80;5.53;;;;;;;;;;5114408;28;20471;-72
2021/08/21 09:24:27;;;;;;;5.60;5.10;;;;;;;;;;5111846;28;20471;-74
2021/08/21 09:26:55;;;;;;;5.30;4.47;;;;;;;;;;5112187;28;20812;-73
2021/08/21 09:29:27;;;;;;;5.40;4.60;;;;;;;;;;5106863;28;20448;-74
2021/08/21 09:32:05;;;;;;;5.07;4.50;;;;;;;;;;5108322;28;20440;-74
2021/08/21 09:34:32;;;;;;;6.20;4.83;;;;;;;;;;5109665;28;20755;-78
2021/08/21 09:36:59;;;;;;;5.03;4.53;;;;;;;;;;5104133;28;20448;-73
2021/08/21 09:39:33;;;;;;;5.30;4.70;;;;;;;;;;5106954;28;20539;-79
2021/08/21 09:42:03;;;;;;;4.47;4.07;;;;;;;;;;5102005;28;20461;-77
2021/08/21 09:44:31;;;;;;;4.70;4.23;;;;;;;;;;5106136;28;20475;-73
2021/08/21 09:47:15;;;;;;;5.80;5.10;;;;;;;;;;5104387;28;20505;-75
2021/08/21 09:49:42;;;;;;;4.50;4.10;;;;;;;;;;5105854;28;20448;-73
2021/08/21 09:52:11;;;;;;;5.60;4.67;;;;;;;;;;5106685;28;20529;-73
2021/08/21 09:54:39;;;;;;;4.93;4.20;;;;;;;;;;5107620;28;20447;-74
2021/08/21 09:57:08;;;;;;;5.77;4.70;;;;;;;;;;5108352;28;20431;-73
2021/08/21 09:59:36;;;;;;;4.80;4.40;;;;;;;;;;5108031;28;20467;-72
2021/08/21 10:02:05;;;;;;;6.33;5.20;;;;;;;;;;5107823;28;20435;-73
2021/08/21 10:04:33;;;;;;;5.90;5.40;;;;;;;;;;5102582;28;20911;-72
2021/08/21 10:07:03;;;;;;;7.30;4.83;;;;;;;;;;5105013;28;20445;-75
2021/08/21 10:09:30;;;;;;;4.90;4.43;;;;;;;;;;5106854;28;20448;-73
2021/08/21 10:11:57;;;;;;;5.03;4.63;;;;;;;;;;5104473;28;20436;-73
2021/08/21 10:14:26;;;;;;;7.80;4.63;;;;;;;;;;5103984;28;20870;-73
2021/08/21 10:16:54;;;;;;;4.97;4.47;;;;;;;;;;5104611;28;20444;-73
2021/08/21 10:19:23;;;;;;;5.17;4.70;;;;;;;;;;5103979;28;20546;-73
2021/08/21 10:21:51;;;;;;;5.70;4.83;;;;;;;;;;5104481;28;20997;-71
2021/08/21 10:24:30;;;;;;;6.27;5.63;;;;;;;;;;5108519;28;20483;-72
2021/08/21 10:27:00;;;;;;;5.50;5.00;;;;;;;;;;5112615;28;20474;-72
2021/08/21 10:29:28;;;;;;;5.47;5.07;;;;;;;;;;5112366;28;20444;-72
2021/08/21 10:31:56;;;;;;;6.30;5.47;;;;;;;;;;5112946;28;20519;-72
2021/08/21 10:34:23;;;;;;;6.40;5.10;;;;;;;;;;5112405;28;20496;-72
2021/08/21 10:36:52;;;;;;;6.90;4.97;;;;;;;;;;5112517;28;20808;-72
2021/08/21 10:39:21;;;;;;;6.50;5.80;;;;;;;;;;5112469;28;20522;-72
2021/08/21 10:41:49;;;;;;;5.73;5.10;;;;;;;;;;5116152;28;20445;-73
2021/08/21 10:44:34;;;;;;;6.83;5.70;;;;;;;;;;5113269;28;20575;-72
2021/08/21 10:47:03;;;;;;;5.97;5.37;;;;;;;;;;5112704;28;20439;-72
2021/08/21 10:49:43;;;;;;;6.00;5.50;;;;;;;;;;5111816;28;20908;-73
2021/08/21 10:52:29;;;;;;;5.80;5.20;;;;;;;;;;5112311;28;20512;-72
2021/08/21 10:54:56;;;;;;;5.17;4.67;;;;;;;;;;5112173;28;20542;-72
2021/08/21 10:57:27;;;;;;;7.27;5.20;;;;;;;;;;5111870;28;20448;-72
2021/08/21 10:59:54;;;;;;;5.70;5.10;;;;;;;;;;5111951;28;20432;-72
2021/08/21 11:02:42;;;;;;;5.57;5.07;;;;;;;;;;5111671;28;20440;-72
2021/08/21 11:05:29;;;;;;;5.40;4.87;;;;;;;;;;5110651;28;20574;-72
2021/08/21 11:08:03;;;;;;;5.43;4.90;;;;;;;;;;5103220;28;20475;-73
2021/08/21 11:10:30;;;;;;;5.63;5.20;;;;;;;;;;5107950;28;20439;-72
2021/08/21 11:12:58;;;;;;;6.03;5.43;;;;;;;;;;5111625;28;20452;-72
2021/08/21 11:15:30;;;;;;;7.77;6.00;;;;;;;;;;5110161;28;20514;-76
2021/08/21 11:17:59;;;;;;;5.70;5.20;;;;;;;;;;5103559;28;20476;-75
2021/08/21 11:20:27;;;;;;;7.43;5.77;;;;;;;;;;5109981;28;20559;-71
2021/08/21 11:23:16;;;;;;;7.73;7.03;;;;;;;;;;5111355;28;20535;-71
2021/08/21 11:25:44;;;;;;;6.03;5.00;;;;;;;;;;5111545;28;20479;-72
2021/08/21 11:28:13;;;;;;;5.93;5.43;;;;;;;;;;5102837;28;20452;-71
2021/08/21 11:30:41;;;;;;;12.53;7.00;;;;;;;;;;5091207;28;20814;-72
2021/08/21 11:33:16;;;;;;;6.40;5.80;;;;;;;;;;5102713;28;20439;-72
2021/08/21 11:35:48;;;;;;;5.80;5.30;;;;;;;;;;5108710;28;20538;-72
2021/08/21 11:38:16;;;;;;;6.20;5.60;;;;;;;;;;5110540;28;20439;-74
2021/08/21 11:40:45;;;;;;;6.80;5.17;;;;;;;;;;5111234;28;20438;-71
2021/08/21 11:43:13;;;;;;;6.07;5.57;;;;;;;;;;5110688;28;20446;-72
2021/08/21 11:45:40;;;;;;;6.20;5.60;;;;;;;;;;5111584;28;20565;-71
2021/08/21 11:48:08;;;;;;;6.03;4.70;;;;;;;;;;5106921;28;20459;-73
2021/08/21 11:50:38;;;;;;;11.00;6.27;;;;;;;;;;5107677;28;20536;-72
2021/08/21 11:53:07;;;;;;;6.20;5.70;;;15.20;99.90;;;;;;5108138;28;20442;-71
2021/08/21 11:55:35;;;;;;;5.83;5.23;;;28.40;99.90;;;;;;5107380;28;20467;-72
2021/08/21 11:58:03;;;;;;;5.87;5.37;;;28.30;99.90;;;;;;5108337;28;20526;-71
2021/08/21 12:00:31;;;;;;;5.30;4.80;;;28.40;99.90;;;;;;5107452;28;20451;-71
2021/08/21 12:03:02;;;;;;;4.83;4.43;;;28.40;99.90;;;;;;5107657;28;20444;-71
2021/08/21 12:05:31;;;;;;;6.03;5.47;;;28.10;99.90;;;;;;5106330;28;20474;-71
2021/08/21 12:08:13;;;;;;;5.43;4.70;;;28.20;99.90;;;;;;5108373;28;20526;-71
2021/08/21 12:10:45;;;;;;;5.43;4.83;;;27.90;99.90;;;;;;5108090;28;20443;-71
2021/08/21 12:13:14;;;;;;;4.63;4.17;;;28.20;99.90;;;;;;5108586;28;20459;-71
2021/08/21 12:15:42;;;;;;;5.30;4.80;;;28.90;99.90;;;;;;5108570;28;20439;-71
2021/08/21 12:18:09;;;;;;;5.27;4.73;;;29.10;99.90;;;;;;5108183;28;20470;-71
2021/08/21 12:20:38;;;;;;;4.80;4.30;;;28.90;99.90;;;;;;5108512;28;21003;-72
2021/08/21 12:23:08;;;;;;;5.90;5.40;;;28.60;99.90;;;;;;5112006;28;20432;-72
2021/08/21 12:25:52;;;;;;;5.00;4.60;;;28.90;99.90;;;;;;5091391;28;20471;-71
2021/08/21 12:28:22;;;;;;;5.10;4.70;;;28.60;99.90;;;;;;5092061;28;20980;-72
2021/08/21 12:30:56;;;;;;;6.37;5.77;;;29.00;99.90;;;;;;5092210;28;20447;-71
2021/08/21 12:33:28;;;;;;;5.10;3.63;;;28.90;99.90;;;;;;5106315;28;20442;-72
2021/08/21 12:35:55;;;;;;;5.00;4.60;;;28.80;99.90;;;;;;5111414;28;20630;-72
2021/08/21 12:38:23;;;;;;;5.47;4.53;;;28.70;99.90;;;;;;5110838;28;20453;-71
2021/08/21 12:41:07;;;;;;;7.90;5.00;;;28.50;99.90;;;;;;5110689;28;21052;-71
2021/08/21 12:43:34;;;;;;;4.90;4.33;;;28.50;99.90;;;;;;5111424;28;20809;-71
2021/08/21 12:46:01;;;;;;;4.90;4.50;;;28.90;99.90;;;;;;5112719;28;20985;-71
2021/08/21 12:48:28;;;;;;;5.33;4.67;;;28.90;99.90;;;;;;5111093;28;20943;-72
2021/08/21 12:50:55;;;;;;;5.57;5.07;;;29.50;99.90;;;;;;5111871;28;20815;-71
2021/08/21 12:53:25;;;;;;;5.13;4.73;;;29.60;99.40;;;;;;5111757;28;20542;-72
2021/08/21 12:56:09;;;;;;;5.80;4.77;;;29.50;97.40;;;;;;5112252;28;20366;-71
2021/08/21 12:58:36;;;;;;;4.53;3.80;;;29.30;92.40;;;;;;5111434;28;20193;-71
2021/08/21 13:01:07;;;;;;;5.80;5.30;;;29.30;90.20;;;;;;5111755;28;20450;-71
2021/08/21 13:03:35;;;;;;;5.80;5.20;;;29.40;80.80;;;;;;5111761;28;20242;-71
2021/08/21 13:06:03;;;;;;;4.60;4.20;;;29.20;77.80;;;;;;5111741;28;21013;-71
2021/08/21 13:08:36;;;;;;;5.03;4.50;;;29.20;73.50;;;;;;5111585;28;20443;-70
2021/08/21 13:11:04;;;;;;;5.17;4.67;;;29.40;69.10;;;;;;5111350;28;20217;-70
2021/08/21 13:13:31;;;;;;;4.90;4.50;;;29.50;71.70;;;;;;5111287;28;20475;-70
2021/08/21 13:16:06;;;;;;;4.60;4.17;;;30.00;62.20;;;;;;5111360;28;20200;-71
2021/08/21 13:18:34;;;;;;;4.70;4.30;;;29.70;64.00;;;;;;5111285;27;20250;-71
2021/08/21 13:21:01;;;;;;;5.17;4.77;;;;;;;;;;5110918;28;20325;-70
2021/08/21 13:23:28;;;;;;;4.90;4.40;;;;;;;;;;5110585;28;20276;-70
2021/08/21 13:25:57;;;;;;;5.63;4.67;;;;;;;;;;5095019;28;20603;-71
2021/08/21 13:28:24;;;;;;;4.03;3.73;;;;;;;;;;5111473;28;20284;-70
2021/08/21 13:30:52;;;;;;;4.53;4.17;;;;;;;;;;5111891;28;20712;-70
2021/08/21 13:33:19;;;;;;;7.93;7.17;;;;;;;;;;5110693;28;20276;-70
2021/08/21 13:35:46;;;;;;;4.77;4.47;;;;;;;;;;5110375;28;20197;-70
2021/08/21 13:38:14;;;;;;;5.10;4.53;;;29.70;62.80;;;;;;5111602;28;20276;-70
2021/08/21 13:40:41;;;;;;;5.17;4.77;;;29.40;55.80;;;;;;5109266;28;20193;-70
2021/08/21 13:43:09;;;;;;;5.37;4.83;;;29.10;56.80;;;;;;5111384;28;20201;-70
2021/08/21 13:45:37;;;;;;;6.37;5.77;;;29.40;59.80;;;;;;5110598;28;20240;-70
2021/08/21 13:48:04;;;;;;;4.70;4.30;;;29.40;57.90;;;;;;5111092;28;20236;-70
2021/08/21 13:50:31;;;;;;;4.78;4.47;;;29.70;53.70;;;;;;5110690;28;20205;-70
2021/08/21 13:52:58;;;;;;;5.60;5.10;;;30.10;49.40;;;;;;5110985;28;20507;-70
2021/08/21 13:55:25;;;;;;;5.38;4.97;;;30.10;45.80;;;;;;5111065;28;20311;-70
2021/08/21 13:57:52;;;;;;;5.37;4.87;;;30.30;41.80;;;;;;5110979;28;20201;-71
2021/08/21 14:00:21;;;;;;;5.90;5.10;;;29.90;41.20;;;;;;5103302;28;20192;-71
2021/08/21 14:02:48;;;;;;;5.20;4.70;;;30.50;38.80;;;;;;5101874;28;20216;-72
2021/08/21 14:05:15;;;;;;;4.90;4.43;;;30.30;35.60;;;;;;5105106;28;20216;-71
2021/08/21 14:07:42;;;;;;;5.47;4.97;;;29.80;37.00;;;;;;5109924;28;20220;-73
2021/08/21 14:10:11;;;;;;;5.00;4.60;;;29.90;40.90;;;;;;5102802;28;20194;-76
2021/08/21 14:12:38;;;;;;;5.00;4.50;;;29.70;44.80;;;;;;5106427;28;20233;-72
2021/08/21 14:15:06;;;;;;;5.43;5.03;;;30.10;42.90;;;;;;5109807;28;20193;-72
2021/08/21 14:17:34;;;;;;;29.57;26.67;;;30.50;39.30;;;;;;5109723;28;20276;-72
2021/08/21 14:20:01;;;;;;;7.70;7.00;;;30.60;36.90;;;;;;5110524;28;20302;-70
2021/08/21 14:22:30;;;;;;;5.80;5.30;;;30.40;37.40;;;;;;5109993;28;20193;-72
2021/08/21 14:24:57;;;;;;;6.40;5.67;;;30.60;37.60;;;;;;5110454;28;20217;-71
2021/08/21 14:27:25;;;;;;;5.00;4.60;;;30.90;36.60;;;;;;5110253;28;20208;-71